createdAt,value
2022-12-26T00:00:00.169Z,994.02
2022-12-26T00:05:00.248Z,994.02
2022-12-26T00:10:00.108Z,993.95
2022-12-26T00:15:00.138Z,994.02
2022-12-26T00:20:00.176Z,993.94
2022-12-26T00:25:00.122Z,993.73
2022-12-26T00:30:00.159Z,993.75
2022-12-26T00:35:00.202Z,993.88
2022-12-26T00:40:00.129Z,993.96
2022-12-26T00:45:00.102Z,993.98
2022-12-26T00:50:12.087Z,993.94
2022-12-26T00:55:00.146Z,994.03
2022-12-26T01:00:00.160Z,994.12
2022-12-26T01:05:00.124Z,993.94
2022-12-26T01:10:00.195Z,993.88
2022-12-26T01:15:00.133Z,993.78
2022-12-26T01:20:00.130Z,994
2022-12-26T01:25:00.107Z,994.11
2022-12-26T01:30:00.149Z,993.99
2022-12-26T01:35:00.138Z,994.07
2022-12-26T01:40:00.112Z,993.78
2022-12-26T01:45:00.120Z,993.89
2022-12-26T01:50:00.150Z,993.98
2022-12-26T01:55:00.118Z,993.96
2022-12-26T02:00:00.125Z,993.79
2022-12-26T02:05:00.193Z,993.8
2022-12-26T02:10:00.190Z,993.7
2022-12-26T02:15:00.159Z,993.65
2022-12-26T02:20:00.120Z,993.68
2022-12-26T02:25:00.108Z,993.81
2022-12-26T02:30:00.138Z,993.7
2022-12-26T02:35:00.117Z,993.87
2022-12-26T02:40:00.147Z,994.09
2022-12-26T02:45:00.109Z,993.81
2022-12-26T02:50:00.140Z,993.87
2022-12-26T02:55:00.176Z,993.79
2022-12-26T03:00:00.125Z,993.74
2022-12-26T03:05:00.144Z,993.79
2022-12-26T03:10:00.158Z,993.62
2022-12-26T03:15:00.135Z,993.86
2022-12-26T03:20:00.255Z,994.13
2022-12-26T03:25:00.119Z,994.06
2022-12-26T03:30:00.133Z,993.96
2022-12-26T03:35:00.149Z,993.84
2022-12-26T03:40:00.123Z,994.02
2022-12-26T03:45:00.180Z,993.98
2022-12-26T03:50:00.154Z,994.09
2022-12-26T03:55:00.125Z,994.02
2022-12-26T04:00:00.312Z,994.13
2022-12-26T04:05:00.135Z,994.23
2022-12-26T04:10:00.157Z,994.29
2022-12-26T04:15:00.167Z,994.26
2022-12-26T04:20:00.213Z,994.27
2022-12-26T04:25:00.139Z,994.37
2022-12-26T04:30:00.193Z,993.88
2022-12-26T04:35:00.246Z,993.91
2022-12-26T04:40:00.234Z,993.94
2022-12-26T04:45:00.179Z,993.65
2022-12-26T04:50:00.133Z,993.79
2022-12-26T04:55:00.122Z,993.6
2022-12-26T05:00:00.126Z,993.63
2022-12-26T05:05:00.115Z,993.75
2022-12-26T05:10:00.124Z,993.72
2022-12-26T05:15:00.123Z,993.9
2022-12-26T05:20:00.139Z,993.91
2022-12-26T05:25:00.121Z,993.96
2022-12-26T05:30:00.120Z,994.02
2022-12-26T05:35:00.122Z,993.93
2022-12-26T05:40:00.147Z,993.85
2022-12-26T05:45:00.097Z,993.72
2022-12-26T05:50:00.087Z,993.54
2022-12-26T05:55:00.133Z,993.59
2022-12-26T06:00:00.135Z,993.57
2022-12-26T06:05:00.113Z,993.6
2022-12-26T06:10:00.130Z,993.77
2022-12-26T06:15:00.146Z,993.8
2022-12-26T06:20:00.126Z,993.88
2022-12-26T06:25:00.130Z,993.94
2022-12-26T06:30:00.110Z,994
2022-12-26T06:35:00.119Z,994.06
2022-12-26T06:40:00.117Z,994.2
2022-12-26T06:45:00.127Z,994.09
2022-12-26T06:50:00.121Z,994.14
2022-12-26T06:55:00.146Z,994.21
2022-12-26T07:00:00.164Z,994.23
2022-12-26T07:05:00.157Z,994.47
2022-12-26T07:10:00.151Z,994.32
2022-12-26T07:15:01.764Z,994.33
2022-12-26T07:20:00.156Z,994.26
2022-12-26T07:25:00.125Z,994.27
2022-12-26T07:30:00.140Z,994.18
2022-12-26T07:35:00.148Z,994.2
2022-12-26T07:40:00.167Z,994.31
2022-12-26T07:45:00.118Z,994.35
2022-12-26T07:50:00.113Z,994.38
2022-12-26T07:55:00.159Z,994.45
2022-12-26T08:00:00.118Z,994.58
2022-12-26T08:05:00.129Z,994.56
2022-12-26T08:10:00.111Z,994.65
2022-12-26T08:15:00.126Z,994.72
2022-12-26T08:20:00.171Z,994.68
2022-12-26T08:25:00.127Z,994.71
2022-12-26T08:30:00.185Z,994.79
2022-12-26T08:35:00.168Z,994.59
2022-12-26T08:40:00.134Z,994.62
2022-12-26T08:45:00.103Z,994.73
2022-12-26T08:50:00.114Z,994.73
2022-12-26T08:55:00.126Z,994.84
2022-12-26T09:00:00.105Z,994.84
2022-12-26T09:05:00.148Z,994.85
2022-12-26T09:10:00.154Z,994.82
2022-12-26T09:15:00.126Z,994.92
2022-12-26T09:20:00.150Z,994.95
2022-12-26T09:25:00.112Z,994.98
2022-12-26T09:30:00.136Z,995
2022-12-26T09:35:00.129Z,994.83
2022-12-26T09:40:00.130Z,994.94
2022-12-26T09:45:00.102Z,994.88
2022-12-26T09:50:00.122Z,995.08
2022-12-26T09:55:00.131Z,995.02
2022-12-26T10:00:00.124Z,995.05
2022-12-26T10:05:00.218Z,995.12
2022-12-26T10:10:00.108Z,995.02
2022-12-26T10:15:00.150Z,994.94
2022-12-26T10:20:00.095Z,995.04
2022-12-26T10:25:00.102Z,994.92
2022-12-26T10:30:00.099Z,994.93
2022-12-26T10:35:00.144Z,994.89
2022-12-26T10:40:00.103Z,994.83
2022-12-26T10:45:00.130Z,994.81
2022-12-26T10:50:00.166Z,994.89
2022-12-26T10:55:27.492Z,994.73
2022-12-26T11:00:00.207Z,994.76
2022-12-26T11:10:00.113Z,995.19
2022-12-26T11:15:00.126Z,995.17
2022-12-26T11:20:00.119Z,995.26
2022-12-26T11:25:00.127Z,995.19
2022-12-26T11:30:00.116Z,995.09
2022-12-26T11:35:00.117Z,995.28
2022-12-26T11:40:00.116Z,995.55
2022-12-26T11:45:00.114Z,995.41
2022-12-26T11:50:00.105Z,995.47
2022-12-26T11:55:00.140Z,995.65
2022-12-26T12:00:00.144Z,995.75
2022-12-26T12:05:00.187Z,995.7
2022-12-26T12:10:00.125Z,995.42
2022-12-26T12:15:00.200Z,995.38
2022-12-26T12:20:00.126Z,995.31
2022-12-26T12:25:00.205Z,995.81
2022-12-26T12:30:00.255Z,995.28
2022-12-26T12:35:00.191Z,995.36
2022-12-26T12:40:00.170Z,995.37
2022-12-26T12:45:00.166Z,995.44
2022-12-26T12:50:00.151Z,995.42
2022-12-26T12:55:00.303Z,995.57
2022-12-26T13:00:00.182Z,995.56
2022-12-26T13:05:00.110Z,995.71
2022-12-26T13:10:00.326Z,995.54
2022-12-26T13:15:00.161Z,995.56
2022-12-26T13:20:02.130Z,995.55
2022-12-26T13:25:00.131Z,995.7
2022-12-26T13:30:00.150Z,995.56
2022-12-26T13:35:00.136Z,995.68
2022-12-26T13:40:00.133Z,995.64
2022-12-26T13:45:00.118Z,995.71
2022-12-26T13:50:00.125Z,995.65
2022-12-26T13:55:00.160Z,995.46
2022-12-26T14:00:00.139Z,995.37
2022-12-26T14:05:00.156Z,995.37
2022-12-26T14:10:00.134Z,995.42
2022-12-26T14:15:00.193Z,995.38
2022-12-26T14:20:00.163Z,995.61
2022-12-26T14:25:00.127Z,995.66
2022-12-26T14:30:00.172Z,995.7
2022-12-26T14:35:00.131Z,995.83
2022-12-26T14:40:00.115Z,995.83
2022-12-26T14:45:00.103Z,995.84
2022-12-26T14:50:00.127Z,995.6
2022-12-26T14:55:00.179Z,995.61
2022-12-26T15:00:03.544Z,995.65
2022-12-26T15:05:00.130Z,995.69
2022-12-26T15:10:00.130Z,995.74
2022-12-26T15:15:00.169Z,995.75
2022-12-26T15:20:00.143Z,995.74
2022-12-26T15:30:00.156Z,995.88
2022-12-26T15:35:00.162Z,995.85
2022-12-26T15:40:00.138Z,995.89
2022-12-26T15:45:00.138Z,995.88
2022-12-26T15:50:00.111Z,995.92
2022-12-26T15:55:00.171Z,995.71
2022-12-26T16:00:00.176Z,995.7
2022-12-26T16:05:00.118Z,995.61
2022-12-26T16:10:00.160Z,995.71
2022-12-26T16:15:00.171Z,995.69
2022-12-26T16:20:00.280Z,995.79
2022-12-26T16:25:00.143Z,995.74
2022-12-26T16:30:00.193Z,995.72
2022-12-26T16:35:00.148Z,995.78
2022-12-26T16:40:00.115Z,995.78
2022-12-26T16:45:00.094Z,995.76
2022-12-26T16:50:00.134Z,995.78
2022-12-26T16:55:00.268Z,995.72
2022-12-26T17:00:00.162Z,995.81
2022-12-26T17:05:00.118Z,995.69
2022-12-26T17:10:00.156Z,995.75
2022-12-26T17:15:00.135Z,995.78
2022-12-26T17:20:00.139Z,995.83
2022-12-26T17:25:00.136Z,995.89
2022-12-26T17:30:00.148Z,995.93
2022-12-26T17:35:00.195Z,995.89
2022-12-26T17:40:02.926Z,995.81
2022-12-26T17:45:00.141Z,995.76
2022-12-26T17:50:00.134Z,995.8
2022-12-26T17:55:00.184Z,995.74
2022-12-26T18:00:00.238Z,995.71
2022-12-26T18:05:00.120Z,995.52
2022-12-26T18:10:00.168Z,995.65
2022-12-26T18:15:02.295Z,995.74
2022-12-26T18:20:00.132Z,995.76
2022-12-26T18:25:00.126Z,995.78
2022-12-26T18:30:00.186Z,995.92
2022-12-26T18:35:00.199Z,996.14
2022-12-26T18:40:00.173Z,996.26
2022-12-26T18:45:00.145Z,996.53
2022-12-26T18:50:00.167Z,996.5
2022-12-26T18:55:00.168Z,996.77
2022-12-26T19:00:00.180Z,996.85
2022-12-26T19:05:00.124Z,996.85
2022-12-26T19:10:00.127Z,996.98
2022-12-26T19:15:00.166Z,997.08
2022-12-26T19:20:00.114Z,997.19
2022-12-26T19:25:00.118Z,997.24
2022-12-26T19:30:00.141Z,997.33
2022-12-26T19:35:00.207Z,997.3
2022-12-26T19:40:00.119Z,997.33
2022-12-26T19:45:00.126Z,997.52
2022-12-26T19:50:00.118Z,997.26
2022-12-26T19:55:00.180Z,997.31
2022-12-26T20:00:00.143Z,997.53
2022-12-26T20:05:00.156Z,997.76
2022-12-26T20:10:00.126Z,997.8
2022-12-26T20:15:00.182Z,997.76
2022-12-26T20:20:00.140Z,997.81
2022-12-26T20:25:00.129Z,998.07
2022-12-26T20:30:00.137Z,997.98
2022-12-26T20:35:00.184Z,998.02
2022-12-26T20:40:00.132Z,998.18
2022-12-26T20:45:00.107Z,998.18
2022-12-26T20:50:00.163Z,998.31
2022-12-26T20:55:00.160Z,998.39
2022-12-26T21:00:00.194Z,998.62
2022-12-26T21:05:00.143Z,998.62
2022-12-26T21:10:00.138Z,998.77
2022-12-26T21:15:00.189Z,998.9
2022-12-26T21:20:00.139Z,999.03
2022-12-26T21:25:00.155Z,999.07
2022-12-26T21:30:00.136Z,999.51
2022-12-26T21:35:00.155Z,999.69
2022-12-26T21:40:00.125Z,999.78
2022-12-26T21:45:00.131Z,999.89
2022-12-26T21:50:00.155Z,1000.14
2022-12-26T21:55:00.150Z,1000.31
2022-12-26T22:00:00.270Z,1000.22
2022-12-26T22:05:00.156Z,1000.3
2022-12-26T22:10:00.189Z,1000.5
2022-12-26T22:15:00.137Z,1000.53
2022-12-26T22:20:00.155Z,1000.58
2022-12-26T22:25:00.105Z,1000.85
2022-12-26T22:30:00.157Z,1000.82
2022-12-26T22:35:00.179Z,1000.88
2022-12-26T22:40:00.163Z,1000.82
2022-12-26T22:45:00.141Z,1000.94
2022-12-26T22:50:00.115Z,1001.01
2022-12-26T22:55:00.154Z,1001.15
2022-12-26T23:00:09.438Z,1001.25
2022-12-26T23:05:00.099Z,1001.38
2022-12-26T23:10:00.139Z,1001.42
2022-12-26T23:15:00.140Z,1001.45
2022-12-26T23:20:00.120Z,1001.41
2022-12-26T23:25:00.117Z,1001.51
2022-12-26T23:30:00.148Z,1001.49
2022-12-26T23:35:00.153Z,1001.6
2022-12-26T23:40:00.117Z,1001.76
2022-12-26T23:45:00.119Z,1001.78
2022-12-26T23:50:00.106Z,1001.76
2022-12-26T23:55:00.133Z,1002.01
